sensor_id;sensor_type;location;lat;lon;timestamp;temperature;humidity
32640;DHT22;19049;52.524;11.468;2024-02-23T00:01:39;13.30;99.90
32640;DHT22;19049;52.524;11.468;2024-02-23T00:04:05;13.10;99.90
32640;DHT22;19049;52.524;11.468;2024-02-23T00:06:33;13.10;99.90
32640;DHT22;19049;52.524;11.468;2024-02-23T00:08:59;12.90;99.90
32640;DHT22;19049;52.524;11.468;2024-02-23T00:11:25;12.80;99.90
32640;DHT22;19049;52.524;11.468;2024-02-23T00:13:50;12.70;99.90
32640;DHT22;19049;52.524;11.468;2024-02-23T00:16:16;12.70;99.90
32640;DHT22;19049;52.524;11.468;2024-02-23T00:18:42;12.40;99.90
32640;DHT22;19049;52.524;11.468;2024-02-23T00:21:07;12.30;99.90
32640;DHT22;19049;52.524;11.468;2024-02-23T00:23:34;12.30;99.90
32640;DHT22;19049;52.524;11.468;2024-02-23T00:25:59;12.20;99.90
32640;DHT22;19049;52.524;11.468;2024-02-23T00:28:25;12.10;99.90
32640;DHT22;19049;52.524;11.468;2024-02-23T00:30:50;12.00;99.90
32640;DHT22;19049;52.524;11.468;2024-02-23T00:33:16;12.00;99.90
32640;DHT22;19049;52.524;11.468;2024-02-23T00:35:42;11.90;99.90
32640;DHT22;19049;52.524;11.468;2024-02-23T00:38:07;11.80;99.90
32640;DHT22;19049;52.524;11.468;2024-02-23T00:40:33;11.80;99.90
32640;DHT22;19049;52.524;11.468;2024-02-23T00:42:59;11.60;99.90
32640;DHT22;19049;52.524;11.468;2024-02-23T00:45:26;11.60;99.90
32640;DHT22;19049;52.524;11.468;2024-02-23T00:47:52;11.60;99.90
32640;DHT22;19049;52.524;11.468;2024-02-23T00:50:17;11.50;99.90
32640;DHT22;19049;52.524;11.468;2024-02-23T00:52:43;11.50;99.90
32640;DHT22;19049;52.524;11.468;2024-02-23T00:55:09;11.50;99.90
32640;DHT22;19049;52.524;11.468;2024-02-23T00:57:35;11.40;99.90
32640;DHT22;19049;52.524;11.468;2024-02-23T01:00:01;11.40;99.90
32640;DHT22;19049;52.524;11.468;2024-02-23T01:02:28;11.40;99.90
32640;DHT22;19049;52.524;11.468;2024-02-23T01:04:55;11.30;99.90
32640;DHT22;19049;52.524;11.468;2024-02-23T01:07:22;11.40;99.90
32640;DHT22;19049;52.524;11.468;2024-02-23T01:09:48;11.30;99.90
32640;DHT22;19049;52.524;11.468;2024-02-23T01:12:14;11.30;99.90
32640;DHT22;19049;52.524;11.468;2024-02-23T01:14:39;11.30;99.90
32640;DHT22;19049;52.524;11.468;2024-02-23T01:17:05;11.30;99.90
32640;DHT22;19049;52.524;11.468;2024-02-23T01:19:30;11.30;99.90
32640;DHT22;19049;52.524;11.468;2024-02-23T01:21:56;11.20;99.90
32640;DHT22;19049;52.524;11.468;2024-02-23T01:24:28;11.20;99.90
32640;DHT22;19049;52.524;11.468;2024-02-23T01:26:58;11.20;99.90
32640;DHT22;19049;52.524;11.468;2024-02-23T01:29:25;11.20;99.90
32640;DHT22;19049;52.524;11.468;2024-02-23T01:31:51;11.20;99.90
32640;DHT22;19049;52.524;11.468;2024-02-23T01:34:17;11.20;99.90
32640;DHT22;19049;52.524;11.468;2024-02-23T01:36:43;11.20;99.90
32640;DHT22;19049;52.524;11.468;2024-02-23T01:39:09;11.20;99.90
32640;DHT22;19049;52.524;11.468;2024-02-23T01:41:35;11.20;99.90
32640;DHT22;19049;52.524;11.468;2024-02-23T01:44:01;11.20;99.90
32640;DHT22;19049;52.524;11.468;2024-02-23T01:46:26;11.20;99.90
32640;DHT22;19049;52.524;11.468;2024-02-23T01:48:53;11.20;99.90
32640;DHT22;19049;52.524;11.468;2024-02-23T01:51:19;11.20;99.90
32640;DHT22;19049;52.524;11.468;2024-02-23T01:53:45;11.20;99.90
32640;DHT22;19049;52.524;11.468;2024-02-23T01:56:12;11.20;97.40
32640;DHT22;19049;52.524;11.468;2024-02-23T01:58:43;11.20;97.50
32640;DHT22;19049;52.524;11.468;2024-02-23T02:01:10;11.20;98.10
32640;DHT22;19049;52.524;11.468;2024-02-23T02:03:38;11.30;99.40
32640;DHT22;19049;52.524;11.468;2024-02-23T02:06:07;11.30;99.70
32640;DHT22;19049;52.524;11.468;2024-02-23T02:08:33;11.30;99.50
32640;DHT22;19049;52.524;11.468;2024-02-23T02:11:00;11.30;98.90
32640;DHT22;19049;52.524;11.468;2024-02-23T02:13:25;11.30;99.70
32640;DHT22;19049;52.524;11.468;2024-02-23T02:15:53;11.30;99.20
32640;DHT22;19049;52.524;11.468;2024-02-23T02:18:18;11.30;96.30
32640;DHT22;19049;52.524;11.468;2024-02-23T02:20:51;11.30;97.10
32640;DHT22;19049;52.524;11.468;2024-02-23T02:23:18;11.30;95.50
32640;DHT22;19049;52.524;11.468;2024-02-23T02:25:44;11.20;96.20
32640;DHT22;19049;52.524;11.468;2024-02-23T02:28:09;11.20;97.30
32640;DHT22;19049;52.524;11.468;2024-02-23T02:30:35;11.30;96.70
32640;DHT22;19049;52.524;11.468;2024-02-23T02:33:01;11.20;96.20
32640;DHT22;19049;52.524;11.468;2024-02-23T02:35:26;11.20;95.70
32640;DHT22;19049;52.524;11.468;2024-02-23T02:37:52;11.20;94.90
32640;DHT22;19049;52.524;11.468;2024-02-23T02:40:17;11.10;93.90
32640;DHT22;19049;52.524;11.468;2024-02-23T02:42:43;11.20;96.60
32640;DHT22;19049;52.524;11.468;2024-02-23T02:45:08;11.20;95.20
32640;DHT22;19049;52.524;11.468;2024-02-23T02:47:34;11.00;93.70
32640;DHT22;19049;52.524;11.468;2024-02-23T02:50:01;11.10;95.70
32640;DHT22;19049;52.524;11.468;2024-02-23T02:52:27;11.20;95.70
32640;DHT22;19049;52.524;11.468;2024-02-23T02:54:53;11.10;95.20
32640;DHT22;19049;52.524;11.468;2024-02-23T02:57:19;11.10;96.10
32640;DHT22;19049;52.524;11.468;2024-02-23T02:59:44;11.00;94.70
32640;DHT22;19049;52.524;11.468;2024-02-23T03:02:11;10.90;95.10
32640;DHT22;19049;52.524;11.468;2024-02-23T03:04:37;10.80;93.50
32640;DHT22;19049;52.524;11.468;2024-02-23T03:07:02;10.80;93.60
32640;DHT22;19049;52.524;11.468;2024-02-23T03:09:28;10.70;93.70
32640;DHT22;19049;52.524;11.468;2024-02-23T03:11:53;10.80;95.60
32640;DHT22;19049;52.524;11.468;2024-02-23T03:14:19;10.60;93.60
32640;DHT22;19049;52.524;11.468;2024-02-23T03:16:46;10.40;94.10
32640;DHT22;19049;52.524;11.468;2024-02-23T03:19:13;10.30;94.40
32640;DHT22;19049;52.524;11.468;2024-02-23T03:21:38;10.30;95.50
32640;DHT22;19049;52.524;11.468;2024-02-23T03:24:04;10.30;96.80
32640;DHT22;19049;52.524;11.468;2024-02-23T03:26:30;10.30;96.80
32640;DHT22;19049;52.524;11.468;2024-02-23T03:28:55;10.10;96.30
32640;DHT22;19049;52.524;11.468;2024-02-23T03:31:21;10.10;97.50
32640;DHT22;19049;52.524;11.468;2024-02-23T03:33:46;9.90;97.70
32640;DHT22;19049;52.524;11.468;2024-02-23T03:36:12;9.90;97.60
32640;DHT22;19049;52.524;11.468;2024-02-23T03:38:37;9.80;98.00
32640;DHT22;19049;52.524;11.468;2024-02-23T03:41:03;9.70;98.20
32640;DHT22;19049;52.524;11.468;2024-02-23T03:43:29;9.60;98.10
32640;DHT22;19049;52.524;11.468;2024-02-23T03:45:54;9.50;98.40
32640;DHT22;19049;52.524;11.468;2024-02-23T03:48:20;9.50;98.50
32640;DHT22;19049;52.524;11.468;2024-02-23T03:50:46;9.40;98.70
32640;DHT22;19049;52.524;11.468;2024-02-23T03:53:11;9.30;99.40
32640;DHT22;19049;52.524;11.468;2024-02-23T03:55:37;9.20;99.50
32640;DHT22;19049;52.524;11.468;2024-02-23T03:58:02;9.20;99.90
32640;DHT22;19049;52.524;11.468;2024-02-23T04:00:28;9.00;99.70
32640;DHT22;19049;52.524;11.468;2024-02-23T04:02:54;8.90;99.90
32640;DHT22;19049;52.524;11.468;2024-02-23T04:05:19;8.90;99.90
32640;DHT22;19049;52.524;11.468;2024-02-23T04:07:45;8.90;99.90
32640;DHT22;19049;52.524;11.468;2024-02-23T04:10:10;8.80;99.90
32640;DHT22;19049;52.524;11.468;2024-02-23T04:12:41;8.70;99.90
32640;DHT22;19049;52.524;11.468;2024-02-23T04:15:08;8.60;99.90
32640;DHT22;19049;52.524;11.468;2024-02-23T04:17:33;8.60;99.90
32640;DHT22;19049;52.524;11.468;2024-02-23T04:20:00;8.50;99.90
32640;DHT22;19049;52.524;11.468;2024-02-23T04:22:30;8.50;99.90
32640;DHT22;19049;52.524;11.468;2024-02-23T04:24:55;8.50;99.90
32640;DHT22;19049;52.524;11.468;2024-02-23T04:27:21;8.50;99.90
32640;DHT22;19049;52.524;11.468;2024-02-23T04:29:46;8.40;99.90
32640;DHT22;19049;52.524;11.468;2024-02-23T04:32:12;8.40;99.90
32640;DHT22;19049;52.524;11.468;2024-02-23T04:34:38;8.30;99.90
32640;DHT22;19049;52.524;11.468;2024-02-23T04:37:05;8.30;99.90
32640;DHT22;19049;52.524;11.468;2024-02-23T04:39:31;8.30;99.90
32640;DHT22;19049;52.524;11.468;2024-02-23T04:41:56;8.30;99.90
32640;DHT22;19049;52.524;11.468;2024-02-23T04:44:22;8.20;99.90
32640;DHT22;19049;52.524;11.468;2024-02-23T04:46:48;8.20;99.90
32640;DHT22;19049;52.524;11.468;2024-02-23T04:49:13;8.20;99.90
32640;DHT22;19049;52.524;11.468;2024-02-23T04:51:39;8.20;99.90
32640;DHT22;19049;52.524;11.468;2024-02-23T04:54:05;8.10;99.90
32640;DHT22;19049;52.524;11.468;2024-02-23T04:56:30;8.10;99.90
32640;DHT22;19049;52.524;11.468;2024-02-23T04:58:56;8.20;99.90
32640;DHT22;19049;52.524;11.468;2024-02-23T05:01:21;8.20;99.90
32640;DHT22;19049;52.524;11.468;2024-02-23T05:03:47;8.20;99.90
32640;DHT22;19049;52.524;11.468;2024-02-23T05:06:12;8.20;99.90
32640;DHT22;19049;52.524;11.468;2024-02-23T05:08:38;8.10;99.90
32640;DHT22;19049;52.524;11.468;2024-02-23T05:11:04;8.10;99.90
32640;DHT22;19049;52.524;11.468;2024-02-23T05:13:29;8.20;99.90
32640;DHT22;19049;52.524;11.468;2024-02-23T05:15:57;8.20;99.90
32640;DHT22;19049;52.524;11.468;2024-02-23T05:18:23;8.20;99.90
32640;DHT22;19049;52.524;11.468;2024-02-23T05:20:49;8.20;99.90
32640;DHT22;19049;52.524;11.468;2024-02-23T05:23:15;8.20;99.90
32640;DHT22;19049;52.524;11.468;2024-02-23T05:25:41;8.10;99.90
32640;DHT22;19049;52.524;11.468;2024-02-23T05:28:07;8.10;99.90
32640;DHT22;19049;52.524;11.468;2024-02-23T05:30:32;8.00;99.90
32640;DHT22;19049;52.524;11.468;2024-02-23T05:32:58;8.00;99.90
32640;DHT22;19049;52.524;11.468;2024-02-23T05:35:24;8.00;99.90
32640;DHT22;19049;52.524;11.468;2024-02-23T05:37:50;8.00;99.90
32640;DHT22;19049;52.524;11.468;2024-02-23T05:40:16;7.90;99.90
32640;DHT22;19049;52.524;11.468;2024-02-23T05:42:41;8.00;99.90
32640;DHT22;19049;52.524;11.468;2024-02-23T05:45:08;8.00;99.90
32640;DHT22;19049;52.524;11.468;2024-02-23T05:47:38;7.90;99.90
32640;DHT22;19049;52.524;11.468;2024-02-23T05:50:05;7.80;99.20
32640;DHT22;19049;52.524;11.468;2024-02-23T05:52:33;7.90;99.90
32640;DHT22;19049;52.524;11.468;2024-02-23T05:54:59;7.90;99.90
32640;DHT22;19049;52.524;11.468;2024-02-23T05:57:29;7.90;99.90
32640;DHT22;19049;52.524;11.468;2024-02-23T05:59:55;7.90;99.90
32640;DHT22;19049;52.524;11.468;2024-02-23T06:02:22;7.90;99.90
32640;DHT22;19049;52.524;11.468;2024-02-23T06:04:48;7.80;99.90
32640;DHT22;19049;52.524;11.468;2024-02-23T06:07:14;7.80;99.90
32640;DHT22;19049;52.524;11.468;2024-02-23T06:09:45;7.80;99.90
32640;DHT22;19049;52.524;11.468;2024-02-23T06:12:11;7.80;99.90
32640;DHT22;19049;52.524;11.468;2024-02-23T06:14:36;7.70;99.90
32640;DHT22;19049;52.524;11.468;2024-02-23T06:17:02;7.70;99.90
32640;DHT22;19049;52.524;11.468;2024-02-23T06:19:29;7.60;99.90
32640;DHT22;19049;52.524;11.468;2024-02-23T06:21:54;7.60;99.90
32640;DHT22;19049;52.524;11.468;2024-02-23T06:24:20;7.60;99.90
32640;DHT22;19049;52.524;11.468;2024-02-23T06:26:46;7.50;99.90
32640;DHT22;19049;52.524;11.468;2024-02-23T06:29:12;7.50;99.90
32640;DHT22;19049;52.524;11.468;2024-02-23T06:31:40;7.50;99.90
32640;DHT22;19049;52.524;11.468;2024-02-23T06:34:07;7.50;99.90
32640;DHT22;19049;52.524;11.468;2024-02-23T06:36:32;7.50;99.90
32640;DHT22;19049;52.524;11.468;2024-02-23T06:38:58;7.50;99.90
32640;DHT22;19049;52.524;11.468;2024-02-23T06:41:23;7.50;99.90
32640;DHT22;19049;52.524;11.468;2024-02-23T06:43:49;7.60;99.90
32640;DHT22;19049;52.524;11.468;2024-02-23T06:46:14;7.60;99.90
32640;DHT22;19049;52.524;11.468;2024-02-23T06:48:40;7.60;99.90
32640;DHT22;19049;52.524;11.468;2024-02-23T06:51:06;7.60;99.90
32640;DHT22;19049;52.524;11.468;2024-02-23T06:53:35;7.70;99.90
32640;DHT22;19049;52.524;11.468;2024-02-23T06:56:00;7.80;99.90
32640;DHT22;19049;52.524;11.468;2024-02-23T06:58:26;7.80;99.90
32640;DHT22;19049;52.524;11.468;2024-02-23T07:00:52;7.80;99.90
32640;DHT22;19049;52.524;11.468;2024-02-23T07:03:17;7.80;99.90
32640;DHT22;19049;52.524;11.468;2024-02-23T07:05:43;7.80;99.90
32640;DHT22;19049;52.524;11.468;2024-02-23T07:08:09;7.90;99.90
32640;DHT22;19049;52.524;11.468;2024-02-23T07:10:34;7.90;99.90
32640;DHT22;19049;52.524;11.468;2024-02-23T07:13:00;7.90;99.90
32640;DHT22;19049;52.524;11.468;2024-02-23T07:15:26;7.90;99.90
32640;DHT22;19049;52.524;11.468;2024-02-23T07:17:54;7.90;99.90
32640;DHT22;19049;52.524;11.468;2024-02-23T07:20:19;7.90;99.90
32640;DHT22;19049;52.524;11.468;2024-02-23T07:22:46;7.90;99.90
32640;DHT22;19049;52.524;11.468;2024-02-23T07:25:15;7.90;99.90
32640;DHT22;19049;52.524;11.468;2024-02-23T07:27:41;8.00;99.90
32640;DHT22;19049;52.524;11.468;2024-02-23T07:30:07;8.20;99.90
32640;DHT22;19049;52.524;11.468;2024-02-23T07:32:33;8.50;99.90
32640;DHT22;19049;52.524;11.468;2024-02-23T07:34:59;8.70;99.90
32640;DHT22;19049;52.524;11.468;2024-02-23T07:37:26;8.90;99.90
32640;DHT22;19049;52.524;11.468;2024-02-23T07:39:52;9.20;99.90
32640;DHT22;19049;52.524;11.468;2024-02-23T07:42:18;9.40;99.90
32640;DHT22;19049;52.524;11.468;2024-02-23T07:44:44;9.60;99.90
32640;DHT22;19049;52.524;11.468;2024-02-23T07:47:10;9.80;99.90
32640;DHT22;19049;52.524;11.468;2024-02-23T07:49:36;10.10;99.90
32640;DHT22;19049;52.524;11.468;2024-02-23T07:52:02;10.30;99.90
32640;DHT22;19049;52.524;11.468;2024-02-23T07:54:28;10.50;99.90
32640;DHT22;19049;52.524;11.468;2024-02-23T07:56:54;10.70;99.90
32640;DHT22;19049;52.524;11.468;2024-02-23T07:59:19;10.80;99.90
32640;DHT22;19049;52.524;11.468;2024-02-23T08:01:45;11.00;99.90
32640;DHT22;19049;52.524;11.468;2024-02-23T08:04:11;11.10;98.40
32640;DHT22;19049;52.524;11.468;2024-02-23T08:06:36;11.20;98.60
32640;DHT22;19049;52.524;11.468;2024-02-23T08:09:02;11.40;99.90
32640;DHT22;19049;52.524;11.468;2024-02-23T08:11:28;11.50;98.10
32640;DHT22;19049;52.524;11.468;2024-02-23T08:13:53;11.60;99.30
32640;DHT22;19049;52.524;11.468;2024-02-23T08:16:19;11.70;97.40
32640;DHT22;19049;52.524;11.468;2024-02-23T08:18:44;11.70;95.20
32640;DHT22;19049;52.524;11.468;2024-02-23T08:21:10;11.80;98.10
32640;DHT22;19049;52.524;11.468;2024-02-23T08:23:36;11.90;96.60
32640;DHT22;19049;52.524;11.468;2024-02-23T08:26:02;11.90;96.70
32640;DHT22;19049;52.524;11.468;2024-02-23T08:28:27;12.00;96.10
32640;DHT22;19049;52.524;11.468;2024-02-23T08:30:53;12.00;94.60
32640;DHT22;19049;52.524;11.468;2024-02-23T08:33:19;12.10;95.70
32640;DHT22;19049;52.524;11.468;2024-02-23T08:35:45;12.00;92.70
32640;DHT22;19049;52.524;11.468;2024-02-23T08:38:11;12.10;95.40
32640;DHT22;19049;52.524;11.468;2024-02-23T08:40:36;12.10;93.20
32640;DHT22;19049;52.524;11.468;2024-02-23T08:43:02;12.10;93.70
32640;DHT22;19049;52.524;11.468;2024-02-23T08:45:28;12.20;93.70
32640;DHT22;19049;52.524;11.468;2024-02-23T08:47:54;12.20;93.80
32640;DHT22;19049;52.524;11.468;2024-02-23T08:50:19;12.10;91.80
32640;DHT22;19049;52.524;11.468;2024-02-23T08:52:45;12.10;92.90
32640;DHT22;19049;52.524;11.468;2024-02-23T08:55:10;12.10;94.30
32640;DHT22;19049;52.524;11.468;2024-02-23T08:57:37;12.10;92.60
32640;DHT22;19049;52.524;11.468;2024-02-23T09:00:03;12.10;91.90
32640;DHT22;19049;52.524;11.468;2024-02-23T09:02:30;12.00;92.10
32640;DHT22;19049;52.524;11.468;2024-02-23T09:04:56;12.00;93.20
32640;DHT22;19049;52.524;11.468;2024-02-23T09:07:22;12.00;92.00
32640;DHT22;19049;52.524;11.468;2024-02-23T09:09:47;12.00;91.40
32640;DHT22;19049;52.524;11.468;2024-02-23T09:12:16;12.00;92.50
32640;DHT22;19049;52.524;11.468;2024-02-23T09:14:45;12.00;92.70
32640;DHT22;19049;52.524;11.468;2024-02-23T09:17:11;12.00;91.30
32640;DHT22;19049;52.524;11.468;2024-02-23T09:19:38;11.90;91.40
32640;DHT22;19049;52.524;11.468;2024-02-23T09:22:03;11.90;90.20
32640;DHT22;19049;52.524;11.468;2024-02-23T09:24:29;11.90;91.00
32640;DHT22;19049;52.524;11.468;2024-02-23T09:26:55;11.90;91.70
32640;DHT22;19049;52.524;11.468;2024-02-23T09:29:20;11.90;91.70
32640;DHT22;19049;52.524;11.468;2024-02-23T09:31:46;11.80;88.70
32640;DHT22;19049;52.524;11.468;2024-02-23T09:34:12;11.80;90.50
32640;DHT22;19049;52.524;11.468;2024-02-23T09:36:38;11.80;92.10
32640;DHT22;19049;52.524;11.468;2024-02-23T09:39:03;11.70;90.80
32640;DHT22;19049;52.524;11.468;2024-02-23T09:41:30;11.50;89.20
32640;DHT22;19049;52.524;11.468;2024-02-23T09:43:59;11.50;91.50
32640;DHT22;19049;52.524;11.468;2024-02-23T09:46:26;11.50;90.60
32640;DHT22;19049;52.524;11.468;2024-02-23T09:48:53;11.30;90.10
32640;DHT22;19049;52.524;11.468;2024-02-23T09:51:19;11.30;90.10
32640;DHT22;19049;52.524;11.468;2024-02-23T09:53:47;11.20;90.20
32640;DHT22;19049;52.524;11.468;2024-02-23T09:56:15;11.00;90.80
32640;DHT22;19049;52.524;11.468;2024-02-23T09:58:42;11.00;91.20
32640;DHT22;19049;52.524;11.468;2024-02-23T10:01:10;10.90;91.80
32640;DHT22;19049;52.524;11.468;2024-02-23T10:03:37;10.90;91.80
32640;DHT22;19049;52.524;11.468;2024-02-23T10:06:04;10.90;91.30
32640;DHT22;19049;52.524;11.468;2024-02-23T10:08:30;11.00;93.00
32640;DHT22;19049;52.524;11.468;2024-02-23T10:10:56;11.10;92.00
32640;DHT22;19049;52.524;11.468;2024-02-23T10:13:24;11.20;92.70
32640;DHT22;19049;52.524;11.468;2024-02-23T10:15:53;11.30;89.70
32640;DHT22;19049;52.524;11.468;2024-02-23T10:18:19;11.40;92.30
32640;DHT22;19049;52.524;11.468;2024-02-23T10:20:45;11.50;91.10
32640;DHT22;19049;52.524;11.468;2024-02-23T10:23:11;11.50;91.50
32640;DHT22;19049;52.524;11.468;2024-02-23T10:25:37;11.50;89.00
32640;DHT22;19049;52.524;11.468;2024-02-23T10:28:06;11.50;87.50
32640;DHT22;19049;52.524;11.468;2024-02-23T10:30:33;11.60;91.00
32640;DHT22;19049;52.524;11.468;2024-02-23T10:32:59;11.70;87.70
32640;DHT22;19049;52.524;11.468;2024-02-23T10:35:25;11.80;90.50
32640;DHT22;19049;52.524;11.468;2024-02-23T10:37:53;12.00;86.70
32640;DHT22;19049;52.524;11.468;2024-02-23T10:40:20;12.10;87.70
32640;DHT22;19049;52.524;11.468;2024-02-23T10:42:47;12.20;90.20
32640;DHT22;19049;52.524;11.468;2024-02-23T10:45:20;12.30;89.60
32640;DHT22;19049;52.524;11.468;2024-02-23T10:47:48;12.50;90.90
32640;DHT22;19049;52.524;11.468;2024-02-23T10:50:14;12.60;89.40
32640;DHT22;19049;52.524;11.468;2024-02-23T10:52:42;12.70;90.30
32640;DHT22;19049;52.524;11.468;2024-02-23T10:55:11;12.80;87.40
32640;DHT22;19049;52.524;11.468;2024-02-23T10:57:37;12.80;82.20
32640;DHT22;19049;52.524;11.468;2024-02-23T11:00:04;12.80;89.00
32640;DHT22;19049;52.524;11.468;2024-02-23T11:02:33;12.90;90.50
32640;DHT22;19049;52.524;11.468;2024-02-23T11:05:01;12.90;91.90
32640;DHT22;19049;52.524;11.468;2024-02-23T11:07:30;13.00;87.90
32640;DHT22;19049;52.524;11.468;2024-02-23T11:09:59;13.10;90.90
32640;DHT22;19049;52.524;11.468;2024-02-23T11:12:25;13.10;83.20
32640;DHT22;19049;52.524;11.468;2024-02-23T11:14:51;13.30;85.30
32640;DHT22;19049;52.524;11.468;2024-02-23T11:17:22;13.30;81.70
32640;DHT22;19049;52.524;11.468;2024-02-23T11:19:49;13.30;86.50
32640;DHT22;19049;52.524;11.468;2024-02-23T11:22:24;13.30;78.20
32640;DHT22;19049;52.524;11.468;2024-02-23T11:24:50;13.30;87.20
32640;DHT22;19049;52.524;11.468;2024-02-23T11:27:16;13.30;88.00
32640;DHT22;19049;52.524;11.468;2024-02-23T11:29:46;13.40;88.30
32640;DHT22;19049;52.524;11.468;2024-02-23T11:32:13;13.50;87.50
32640;DHT22;19049;52.524;11.468;2024-02-23T11:34:39;13.70;89.30
32640;DHT22;19049;52.524;11.468;2024-02-23T11:37:11;13.80;86.40
32640;DHT22;19049;52.524;11.468;2024-02-23T11:39:40;13.70;85.40
32640;DHT22;19049;52.524;11.468;2024-02-23T11:42:09;13.70;86.20
32640;DHT22;19049;52.524;11.468;2024-02-23T11:44:34;13.60;90.30
32640;DHT22;19049;52.524;11.468;2024-02-23T11:47:00;13.60;90.90
32640;DHT22;19049;52.524;11.468;2024-02-23T11:49:29;13.80;91.90
32640;DHT22;19049;52.524;11.468;2024-02-23T11:51:55;14.00;91.10
32640;DHT22;19049;52.524;11.468;2024-02-23T11:54:22;14.20;87.00
32640;DHT22;19049;52.524;11.468;2024-02-23T11:56:48;14.20;84.00
32640;DHT22;19049;52.524;11.468;2024-02-23T11:59:15;14.30;83.40
32640;DHT22;19049;52.524;11.468;2024-02-23T12:01:41;14.50;87.70
32640;DHT22;19049;52.524;11.468;2024-02-23T12:04:07;14.60;82.00
32640;DHT22;19049;52.524;11.468;2024-02-23T12:06:33;14.70;81.40
32640;DHT22;19049;52.524;11.468;2024-02-23T12:09:00;14.70;79.40
32640;DHT22;19049;52.524;11.468;2024-02-23T12:11:26;14.60;82.00
32640;DHT22;19049;52.524;11.468;2024-02-23T12:13:52;14.40;82.10
32640;DHT22;19049;52.524;11.468;2024-02-23T12:16:18;14.20;82.60
32640;DHT22;19049;52.524;11.468;2024-02-23T12:18:53;13.90;84.40
32640;DHT22;19049;52.524;11.468;2024-02-23T12:21:18;13.70;83.00
32640;DHT22;19049;52.524;11.468;2024-02-23T12:23:45;13.40;88.70
32640;DHT22;19049;52.524;11.468;2024-02-23T12:26:12;13.20;87.70
32640;DHT22;19049;52.524;11.468;2024-02-23T12:28:39;13.10;89.50
32640;DHT22;19049;52.524;11.468;2024-02-23T12:31:05;13.00;89.60
32640;DHT22;19049;52.524;11.468;2024-02-23T12:33:32;13.00;90.40
32640;DHT22;19049;52.524;11.468;2024-02-23T12:36:02;13.00;89.30
32640;DHT22;19049;52.524;11.468;2024-02-23T12:38:28;13.00;86.60
32640;DHT22;19049;52.524;11.468;2024-02-23T12:40:54;13.10;90.20
32640;DHT22;19049;52.524;11.468;2024-02-23T12:43:20;13.20;89.10
32640;DHT22;19049;52.524;11.468;2024-02-23T12:45:47;13.40;90.40
32640;DHT22;19049;52.524;11.468;2024-02-23T12:48:16;13.70;91.20
32640;DHT22;19049;52.524;11.468;2024-02-23T12:50:43;14.10;92.30
32640;DHT22;19049;52.524;11.468;2024-02-23T12:53:09;14.50;88.10
32640;DHT22;19049;52.524;11.468;2024-02-23T12:55:35;14.70;87.00
32640;DHT22;19049;52.524;11.468;2024-02-23T12:58:02;14.70;87.30
32640;DHT22;19049;52.524;11.468;2024-02-23T13:00:28;14.70;84.50
32640;DHT22;19049;52.524;11.468;2024-02-23T13:02:53;14.50;85.70
32640;DHT22;19049;52.524;11.468;2024-02-23T13:05:19;14.30;86.20
32640;DHT22;19049;52.524;11.468;2024-02-23T13:07:45;14.10;87.30
32640;DHT22;19049;52.524;11.468;2024-02-23T13:10:12;13.90;88.60
32640;DHT22;19049;52.524;11.468;2024-02-23T13:12:38;13.70;88.70
32640;DHT22;19049;52.524;11.468;2024-02-23T13:15:04;13.50;91.00
32640;DHT22;19049;52.524;11.468;2024-02-23T13:17:30;13.40;87.30
32640;DHT22;19049;52.524;11.468;2024-02-23T13:19:55;13.30;88.40
32640;DHT22;19049;52.524;11.468;2024-02-23T13:22:21;13.20;90.50
32640;DHT22;19049;52.524;11.468;2024-02-23T13:24:46;13.10;85.80
32640;DHT22;19049;52.524;11.468;2024-02-23T13:27:12;12.90;90.20
32640;DHT22;19049;52.524;11.468;2024-02-23T13:29:37;12.80;86.10
32640;DHT22;19049;52.524;11.468;2024-02-23T13:32:03;12.70;87.50
32640;DHT22;19049;52.524;11.468;2024-02-23T13:34:29;12.60;90.00
32640;DHT22;19049;52.524;11.468;2024-02-23T13:36:54;12.50;90.40
32640;DHT22;19049;52.524;11.468;2024-02-23T13:39:20;12.50;90.60
32640;DHT22;19049;52.524;11.468;2024-02-23T13:41:46;12.50;89.00
32640;DHT22;19049;52.524;11.468;2024-02-23T13:44:11;12.70;90.40
32640;DHT22;19049;52.524;11.468;2024-02-23T13:46:40;13.10;92.20
32640;DHT22;19049;52.524;11.468;2024-02-23T13:49:06;13.50;91.40
32640;DHT22;19049;52.524;11.468;2024-02-23T13:51:33;14.00;89.90
32640;DHT22;19049;52.524;11.468;2024-02-23T13:53:58;14.40;92.00
32640;DHT22;19049;52.524;11.468;2024-02-23T13:56:24;14.90;91.70
32640;DHT22;19049;52.524;11.468;2024-02-23T13:58:49;15.00;87.70
32640;DHT22;19049;52.524;11.468;2024-02-23T14:01:15;15.10;87.50
32640;DHT22;19049;52.524;11.468;2024-02-23T14:03:41;15.10;85.30
32640;DHT22;19049;52.524;11.468;2024-02-23T14:06:06;15.10;80.50
32640;DHT22;19049;52.524;11.468;2024-02-23T14:08:32;15.20;85.00
32640;DHT22;19049;52.524;11.468;2024-02-23T14:11:00;15.10;84.40
32640;DHT22;19049;52.524;11.468;2024-02-23T14:13:26;15.00;81.90
32640;DHT22;19049;52.524;11.468;2024-02-23T14:15:52;14.80;85.20
32640;DHT22;19049;52.524;11.468;2024-02-23T14:18:17;14.50;82.80
32640;DHT22;19049;52.524;11.468;2024-02-23T14:20:43;14.30;84.40
32640;DHT22;19049;52.524;11.468;2024-02-23T14:23:09;14.10;86.50
32640;DHT22;19049;52.524;11.468;2024-02-23T14:25:34;13.90;83.70
32640;DHT22;19049;52.524;11.468;2024-02-23T14:28:00;13.70;85.70
32640;DHT22;19049;52.524;11.468;2024-02-23T14:30:25;13.50;84.60
32640;DHT22;19049;52.524;11.468;2024-02-23T14:32:51;13.30;85.60
32640;DHT22;19049;52.524;11.468;2024-02-23T14:35:17;13.20;88.10
32640;DHT22;19049;52.524;11.468;2024-02-23T14:37:42;13.10;88.60
32640;DHT22;19049;52.524;11.468;2024-02-23T14:40:08;13.00;90.80
32640;DHT22;19049;52.524;11.468;2024-02-23T14:42:34;12.90;91.70
32640;DHT22;19049;52.524;11.468;2024-02-23T14:44:59;12.80;91.80
32640;DHT22;19049;52.524;11.468;2024-02-23T14:47:25;12.90;91.60
32640;DHT22;19049;52.524;11.468;2024-02-23T14:49:51;12.70;91.90
32640;DHT22;19049;52.524;11.468;2024-02-23T14:52:16;12.70;91.20
32640;DHT22;19049;52.524;11.468;2024-02-23T14:54:42;12.70;91.50
32640;DHT22;19049;52.524;11.468;2024-02-23T14:57:07;12.50;90.80
32640;DHT22;19049;52.524;11.468;2024-02-23T14:59:33;12.50;90.30
32640;DHT22;19049;52.524;11.468;2024-02-23T15:02:05;12.40;91.70
32640;DHT22;19049;52.524;11.468;2024-02-23T15:04:31;12.40;92.20
32640;DHT22;19049;52.524;11.468;2024-02-23T15:06:57;12.30;91.00
32640;DHT22;19049;52.524;11.468;2024-02-23T15:09:22;12.20;92.50
32640;DHT22;19049;52.524;11.468;2024-02-23T15:11:48;12.20;91.80
32640;DHT22;19049;52.524;11.468;2024-02-23T15:14:13;12.10;91.50